Time;durP1;ratioP1;P1;durP2;ratioP2;P2;SDS_P1;SDS_P2;PMS_P1;PMS_P2;Temp;Humidity;BMP_temperature;BMP_pressure;BME280_temperature;BME280_humidity;BME280_pressure;Samples;Min_cycle;Max_cycle;Signal;HPM_P1;HPM_P2
2021/01/15 00:19:03;;;;;;;;;;;;;;;;;;;;;
2021/01/15 00:24:43;;;;;;;21.67;10.20;;;;;;;;;;4285695;33;20207;-78
2021/01/15 00:33:27;;;;;;;18.23;10.17;;;;;;;;;;4277855;33;20164;-78
2021/01/15 00:36:22;;;;;;;17.17;9.70;;;;;;;;;;4285776;33;20202;-78
2021/01/15 00:56:27;;;;;;;19.27;9.90;;;;;;;;;;4390746;32;20235;-78
2021/01/15 01:20:26;;;;;;;17.30;9.13;;;;;;;;;;4299904;33;20608;-78
2021/01/15 01:41:14;;;;;;;16.03;8.73;;;;;;;;;;4200003;34;20228;-78
2021/01/15 01:50:08;;;;;;;;;;;;;;;;;;;;;
2021/01/15 01:59:48;;;;;;;;;;;;;;;;;;;;;
2021/01/15 02:02:04;;;;;;;;;;;;;;;;;;;;;
2021/01/15 02:07:28;;;;;;;19.40;10.00;;;;;;;;;;4273580;33;20536;-78
2021/01/15 02:16:22;;;;;;;18.80;9.67;;;;;;;;;;4273185;33;20199;-78
2021/01/15 02:28:34;;;;;;;17.77;10.57;;;;;;;;;;4392934;32;20172;-78
2021/01/15 02:34:55;;;;;;;19.17;9.60;;;;;;;;;;4392579;32;20237;-78
2021/01/15 02:46:52;;;;;;;13.83;8.13;;;;;;;;;;4287421;33;20253;-78
2021/01/15 02:55:38;;;;;;;15.53;8.10;;;;;;;;;;4345544;33;20671;-78
2021/01/15 03:01:49;;;;;;;14.67;8.60;;;;;;;;;;4328373;33;20193;-78
2021/01/15 03:10:40;;;;;;;14.97;7.77;;;;;;;;;;4330673;33;20174;-78
2021/01/15 03:16:11;;;;;;;13.43;7.63;;;;;;;;;;4330192;33;20225;-78
2021/01/15 03:22:49;;;;;;;;;;;;;;;;;;;;;
2021/01/15 03:25:39;;;;;;;12.53;7.67;;;;;;;;;;4243824;33;20149;-78
2021/01/15 03:28:46;;;;;;;14.03;7.87;;;;;;;;;;4244377;33;20166;-78
2021/01/15 03:31:30;;;;;;;11.60;7.47;;;;;;;;;;4257474;33;20181;-78
2021/01/15 03:37:26;;;;;;;11.03;6.90;;;;;;;;;;4330213;33;20171;-78
2021/01/15 03:40:05;;;;;;;13.70;6.80;;;;;;;;;;4343013;33;20193;-78
2021/01/15 03:42:46;;;;;;;10.37;6.70;;;;;;;;;;4345066;33;20236;-78
2021/01/15 03:48:04;;;;;;;10.77;7.13;;;;;;;;;;4329742;33;20211;-78
2021/01/15 03:50:32;;;;;;;10.03;6.63;;;;;;;;;;4334308;33;20242;-78
2021/01/15 03:53:17;;;;;;;10.30;6.57;;;;;;;;;;4344155;33;20170;-78
2021/01/15 03:56:15;;;;;;;11.07;6.37;;;;;;;;;;4344673;33;20171;-78
2021/01/15 03:59:18;;;;;;;12.07;6.53;;;;;;;;;;4343288;33;20233;-78
2021/01/15 04:01:45;;;;;;;12.37;6.73;;;;;;;;;;4343424;33;20174;-78
2021/01/15 04:04:55;;;;;;;10.03;6.63;;;;;;;;;;4344097;33;20662;-78
2021/01/15 04:24:00;;;;;;;13.00;6.53;;;;;;;;;;4271675;33;20156;-78
2021/01/15 04:30:50;;;;;;;10.33;6.03;;;;;;;;;;4242645;33;20180;-78
2021/01/15 04:33:21;;;;;;;10.60;6.07;;;;;;;;;;4242117;33;20173;-78
2021/01/15 04:36:11;;;;;;;12.23;6.40;;;;;;;;;;4271715;33;20172;-78
2021/01/15 04:39:04;;;;;;;9.43;6.23;;;;;;;;;;4271040;33;20183;-78
2021/01/15 04:41:48;;;;;;;9.13;5.87;;;;;;;;;;4255945;33;20209;-78
2021/01/15 04:44:50;;;;;;;;;;;;;;;;;;;;;
2021/01/15 04:47:15;;;;;;;13.30;6.93;;;;;;;;;;4297469;33;20474;-78
2021/01/15 04:49:59;;;;;;;12.63;6.57;;;;;;;;;;4301299;33;20234;-78
2021/01/15 04:52:44;;;;;;;;;;;;;;;;;;;;;
2021/01/15 04:55:22;;;;;;;10.57;6.43;;;;;;;;;;4314213;33;20188;-78
2021/01/15 04:57:55;;;;;;;10.80;6.33;;;;;;;;;;4357621;32;20170;-78
2021/01/15 05:00:37;;;;;;;9.83;6.27;;;;;;;;;;4376867;32;20189;-78
2021/01/15 05:03:28;;;;;;;14.53;6.67;;;;;;;;;;4391227;32;20145;-78
2021/01/15 05:05:58;;;;;;;16.73;6.73;;;;;;;;;;4384073;32;20212;-78
2021/01/15 05:08:38;;;;;;;;;;;;;;;;;;;;;
2021/01/15 05:11:42;;;;;;;10.90;6.90;;;;;;;;;;4390534;32;20157;-78
2021/01/15 05:14:15;;;;;;;11.97;6.43;;;;;;;;;;4358902;33;20151;-78
2021/01/15 05:16:42;;;;;;;19.77;6.87;;;;;;;;;;4357997;33;20244;-78
2021/01/15 05:22:05;;;;;;;10.80;6.67;;;;;;;;;;4358017;32;20504;-78
2021/01/15 05:24:34;;;;;;;15.50;7.40;;;;;;;;;;4376411;32;20215;-78
2021/01/15 05:36:21;;;;;;;17.03;7.20;;;;;;;;;;4309172;33;20321;-78
2021/01/15 05:39:49;;;;;;;19.47;7.47;;;;;;;;;;4376456;32;20166;-77
2021/01/15 05:41:56;;;;;;;14.57;7.20;;;;;;;;;;4385453;32;20198;-77
2021/01/15 05:44:54;;;;;;;16.40;7.50;;;;;;;;;;4379837;32;20204;-77
2021/01/15 05:47:40;;;;;;;11.77;6.40;;;;;;;;;;4319865;33;20199;-77
2021/01/15 05:50:34;;;;;;;10.70;6.57;;;;;;;;;;4334037;32;20198;-77
2021/01/15 05:53:05;;;;;;;14.20;7.20;;;;;;;;;;4379133;32;20166;-77
2021/01/15 05:56:07;;;;;;;13.10;7.10;;;;;;;;;;4379101;32;20189;-78
2021/01/15 05:58:54;;;;;;;12.50;6.77;;;;;;;;;;4363300;32;20158;-77
2021/01/15 06:01:32;;;;;;;11.47;7.53;;;;;;;;;;4375401;32;20190;-77
2021/01/15 06:03:57;;;;;;;11.97;6.83;;;;;;;;;;4386486;32;20215;-77
2021/01/15 06:06:27;;;;;;;14.83;7.37;;;;;;;;;;4379440;32;20541;-77
2021/01/15 06:08:52;;;;;;;20.90;7.43;;;;;;;;;;4391796;32;20169;-77
2021/01/15 06:11:22;;;;;;;16.23;7.70;;;;;;;;;;4394051;32;20150;-78
2021/01/15 06:13:47;;;;;;;12.97;6.97;;;;;;;;;;4394872;32;20506;-77
2021/01/15 06:16:27;;;;;;;;;;;;;;;;;;;;;
2021/01/15 06:19:04;;;;;;;13.03;7.50;;;;;;;;;;4401557;32;20475;-77
2021/01/15 06:21:35;;;;;;;13.07;7.03;;;;;;;;;;4402738;32;20250;-77
2021/01/15 06:24:37;;;;;;;12.70;7.67;;;;;;;;;;4393874;32;20176;-77
2021/01/15 06:27:33;;;;;;;15.00;7.53;;;;;;;;;;4359972;32;20184;-77
2021/01/15 06:30:07;;;;;;;17.07;7.40;;;;;;;;;;4394726;32;20235;-77
2021/01/15 06:32:32;;;;;;;12.43;7.33;;;;;;;;;;4403464;32;20298;-77
2021/01/15 06:35:00;;;;;;;15.63;7.80;;;;;;;;;;4386997;32;20531;-77
2021/01/15 06:37:28;;;;;;;13.83;7.83;;;;;;;;;;4380164;32;20200;-77
2021/01/15 06:40:02;;;;;;;14.33;7.80;;;;;;;;;;4382327;32;20275;-77
2021/01/15 06:42:28;;;;;;;25.67;8.00;;;;;;;;;;4380325;32;20612;-77
2021/01/15 06:44:54;;;;;;;16.10;8.20;;;;;;;;;;4389005;32;20169;-77
2021/01/15 06:47:21;;;;;;;17.07;8.10;;;;;;;;;;4393236;32;20568;-79
2021/01/15 06:49:51;;;;;;;15.83;7.60;;;;;;;;;;4389666;32;20589;-78
2021/01/15 06:52:24;;;;;;;18.87;7.93;;;;;;;;;;4380290;32;20174;-79
2021/01/15 06:54:59;;;;;;;15.37;7.30;;;;;;;;;;4387723;32;20184;-79
2021/01/15 06:57:27;;;;;;;14.80;7.97;;;;;;;;;;4397334;32;20165;-79
2021/01/15 06:59:57;;;;;;;21.57;7.83;;;;;;;;;;4408211;32;20157;-78
2021/01/15 07:03:04;;;;;;;14.23;8.10;;;;;;;;;;4422024;32;20137;-78
2021/01/15 07:05:39;;;;;;;22.07;8.10;;;;;;;;;;4391180;32;20161;-79
2021/01/15 07:08:21;;;;;;;16.27;8.13;;;;;;;;;;4399105;32;20153;-79
2021/01/15 07:10:59;;;;;;;;;;;;;;;;;;;;;
2021/01/15 07:13:27;;;;;;;22.13;8.73;;;;;;;;;;4391457;32;20169;-79
2021/01/15 07:21:38;;;;;;;15.10;7.93;;;;;;;;;;4390801;32;20341;-78
2021/01/15 07:24:04;;;;;;;15.53;8.63;;;;;;;;;;4391344;32;20154;-78
2021/01/15 07:26:39;;;;;;;14.43;8.37;;;;;;;;;;4391802;32;20228;-78
2021/01/15 07:29:13;;;;;;;19.90;8.83;;;;;;;;;;4392537;32;20191;-77
2021/01/15 07:31:39;;;;;;;15.60;8.47;;;;;;;;;;4392371;32;20160;-78
2021/01/15 07:34:05;;;;;;;16.97;8.27;;;;;;;;;;4392579;32;20147;-78
2021/01/15 07:36:49;;;;;;;18.30;8.17;;;;;;;;;;4392542;32;20202;-79
2021/01/15 07:39:54;;;;;;;17.43;8.33;;;;;;;;;;4389619;32;20224;-77
2021/01/15 07:45:41;;;;;;;16.77;9.00;;;;;;;;;;4390754;32;20157;-78
2021/01/15 07:51:35;;;;;;;;;;;;;;;;;;;;;
2021/01/15 07:54:02;;;;;;;16.20;8.47;;;;;;;;;;4382965;32;20672;-76
2021/01/15 07:56:49;;;;;;;15.43;8.77;;;;;;;;;;4405948;32;20172;-78
2021/01/15 07:59:46;;;;;;;;;;;;;;;;;;;;;
2021/01/15 08:12:05;;;;;;;17.30;8.27;;;;;;;;;;4329589;33;20233;-79
2021/01/15 08:15:19;;;;;;;;;;;;;;;;;;;;;
2021/01/15 08:24:43;;;;;;;;;;;;;;;;;;;;;
2021/01/15 08:30:26;;;;;;;15.27;8.17;;;;;;;;;;4314561;33;20201;-83
2021/01/15 08:46:17;;;;;;;15.20;8.20;;;;;;;;;;4271489;33;20172;-83
2021/01/15 09:12:08;;;;;;;16.53;8.27;;;;;;;;;;4259233;33;20172;-85
2021/01/15 09:14:51;;;;;;;21.90;8.83;;;;;;;;;;4318985;33;20167;-84
2021/01/15 09:17:47;;;;;;;15.57;8.90;;;;;;;;;;4381157;32;20195;-84
2021/01/15 09:36:09;;;;;;;16.83;8.80;;;;;;;;;;4299473;33;20203;-83
2021/01/15 09:54:29;;;;;;;;;;;;;;;;;;;;;
2021/01/15 09:57:06;;;;;;;17.47;8.67;;;;;;;;;;4284985;33;20159;-85
2021/01/15 10:24:18;;;;;;;14.50;9.20;;;;;;;;;;4272283;33;20188;-85
2021/01/15 10:27:18;;;;;;;15.83;9.17;;;;;;;;;;4258948;33;20228;-85
2021/01/15 10:30:08;;;;;;;;;;;;;;;;;;;;;
2021/01/15 10:41:56;;;;;;;15.10;8.00;;;;;;;;;;4331223;33;20150;-84
2021/01/15 10:44:48;;;;;;;21.30;9.00;;;;;;;;;;4318501;33;20159;-85
2021/01/15 10:47:19;;;;;;;14.97;8.53;;;;;;;;;;4330930;33;20156;-84
2021/01/15 10:49:44;;;;;;;14.27;8.30;;;;;;;;;;4337063;32;20216;-84
2021/01/15 10:55:25;;;;;;;32.73;10.27;;;;;;;;;;4359943;32;20150;-86
2021/01/15 11:04:09;;;;;;;25.27;8.70;;;;;;;;;;4330577;33;20555;-84
2021/01/15 11:07:10;;;;;;;;;;;;;;;;;;;;;
2021/01/15 11:10:03;;;;;;;32.33;10.03;;;;;;;;;;4360154;32;20147;-86
2021/01/15 11:16:32;;;;;;;20.00;9.13;;;;;;;;;;4392367;32;20225;-86
2021/01/15 11:18:47;;;;;;;17.93;9.30;;;;;;;;;;4382780;32;20178;-85
2021/01/15 11:21:31;;;;;;;24.87;9.13;;;;;;;;;;4382480;32;20158;-84
2021/01/15 11:24:25;;;;;;;15.00;8.80;;;;;;;;;;4381901;32;20173;-85
2021/01/15 11:27:00;;;;;;;15.83;9.03;;;;;;;;;;4381265;32;20661;-85
2021/01/15 11:30:20;;;;;;;13.97;8.43;;;;;;;;;;4379363;32;20257;-84
2021/01/15 11:32:34;;;;;;;17.00;7.87;;;;;;;;;;4388923;32;20170;-86
2021/01/15 11:35:17;;;;;;;12.03;7.37;;;;;;;;;;4383003;32;20196;-86
2021/01/15 11:50:05;;;;;;;17.87;9.03;;;;;;;;;;4333431;33;20598;-87
2021/01/15 11:58:51;;;;;;;;;;;;;;;;;;;;;
2021/01/15 12:04:43;;;;;;;17.07;7.13;;;;;;;;;;4277936;33;20192;-85
2021/01/15 12:13:49;;;;;;;15.73;8.23;;;;;;;;;;4229456;33;20189;-85
2021/01/15 12:16:42;;;;;;;17.27;8.57;;;;;;;;;;4258343;33;20177;-85
2021/01/15 12:22:59;;;;;;;;;;;;;;;;;;;;;
2021/01/15 12:28:42;;;;;;;20.63;9.10;;;;;;;;;;4336545;32;20150;-85
2021/01/15 12:31:51;;;;;;;;;;;;;;;;;;;;;
2021/01/15 12:43:57;;;;;;;18.90;8.63;;;;;;;;;;4270812;33;20678;-85
2021/01/15 12:46:23;;;;;;;16.40;8.43;;;;;;;;;;4344574;33;20221;-85
2021/01/15 12:49:02;;;;;;;31.63;9.13;;;;;;;;;;4374501;32;20166;-84
2021/01/15 12:52:12;;;;;;;20.83;9.13;;;;;;;;;;4376341;32;20162;-84
2021/01/15 13:00:52;;;;;;;15.83;9.23;;;;;;;;;;4343214;33;20182;-84
2021/01/15 13:10:02;;;;;;;;;;;;;;;;;;;;;
2021/01/15 13:12:28;;;;;;;22.73;8.80;;;;;;;;;;4314205;33;20127;-84
2021/01/15 13:14:59;;;;;;;24.23;8.87;;;;;;;;;;4319299;33;20640;-85
2021/01/15 13:17:31;;;;;;;35.90;10.60;;;;;;;;;;4343309;33;20660;-85
2021/01/15 13:20:09;;;;;;;23.53;8.33;;;;;;;;;;4342214;33;20254;-82
2021/01/15 13:22:46;;;;;;;29.30;8.97;;;;;;;;;;4340876;33;20209;-82
2021/01/15 13:25:28;;;;;;;;;;;;;;;;;;;;;
2021/01/15 13:31:40;;;;;;;15.90;8.07;;;;;;;;;;4299737;33;20162;-85
2021/01/15 13:34:25;;;;;;;19.80;8.00;;;;;;;;;;4280307;33;20172;-85
2021/01/15 13:37:15;;;;;;;;;;;;;;;;;;;;;
2021/01/15 13:40:22;;;;;;;14.97;7.80;;;;;;;;;;4389343;32;20134;-85
2021/01/15 13:43:15;;;;;;;;;;;;;;;;;;;;;
2021/01/15 13:46:10;;;;;;;15.20;8.00;;;;;;;;;;4379364;32;20178;-84
2021/01/15 13:48:52;;;;;;;20.77;8.53;;;;;;;;;;4361321;32;20178;-84
2021/01/15 13:54:55;;;;;;;;;;;;;;;;;;;;;
2021/01/15 13:57:41;;;;;;;12.63;7.47;;;;;;;;;;4374917;32;20173;-83
2021/01/15 14:00:45;;;;;;;;;;;;;;;;;;;;;
2021/01/15 14:03:14;;;;;;;13.23;7.20;;;;;;;;;;4361058;32;20584;-84
2021/01/15 14:05:50;;;;;;;19.23;7.77;;;;;;;;;;4364215;32;20158;-84
2021/01/15 14:11:21;;;;;;;19.37;8.67;;;;;;;;;;4375527;32;20189;-85
2021/01/15 14:22:56;;;;;;;21.43;8.97;;;;;;;;;;4388408;32;20335;-84
2021/01/15 14:25:38;;;;;;;18.20;7.80;;;;;;;;;;4376122;32;20154;-84
2021/01/15 14:28:23;;;;;;;12.70;7.40;;;;;;;;;;4389626;32;20197;-86
2021/01/15 14:31:35;;;;;;;;;;;;;;;;;;;;;
2021/01/15 14:34:04;;;;;;;15.70;7.87;;;;;;;;;;4375065;32;20253;-84
2021/01/15 14:38:04;;;;;;;24.30;8.40;;;;;;;;;;4374754;32;20238;-84
2021/01/15 14:40:06;;;;;;;;;;;;;;;;;;;;;
2021/01/15 14:42:47;;;;;;;27.87;10.13;;;;;;;;;;4392910;32;20146;-84
2021/01/15 14:45:53;;;;;;;12.77;7.03;;;;;;;;;;4378525;32;20208;-85
2021/01/15 14:51:46;;;;;;;14.47;7.60;;;;;;;;;;4373770;32;20173;-83
2021/01/15 14:57:22;;;;;;;16.93;8.10;;;;;;;;;;4315784;33;20355;-84
2021/01/15 15:00:00;;;;;;;16.63;7.80;;;;;;;;;;4303363;33;20164;-84
2021/01/15 15:02:51;;;;;;;15.43;7.70;;;;;;;;;;4313997;33;20205;-84
2021/01/15 15:05:33;;;;;;;14.27;8.07;;;;;;;;;;4367642;32;20151;-84
2021/01/15 15:07:58;;;;;;;27.00;10.20;;;;;;;;;;4377920;32;20564;-85
2021/01/15 15:10:48;;;;;;;12.37;7.67;;;;;;;;;;4391923;32;20123;-84
2021/01/15 15:13:18;;;;;;;18.40;7.80;;;;;;;;;;4367654;32;20215;-85
2021/01/15 15:16:11;;;;;;;17.50;8.30;;;;;;;;;;4407641;32;20340;-85
2021/01/15 15:24:43;;;;;;;22.67;8.40;;;;;;;;;;4344667;32;20204;-85
2021/01/15 15:27:12;;;;;;;13.13;7.10;;;;;;;;;;4332296;33;20317;-85
2021/01/15 15:29:37;;;;;;;17.93;7.30;;;;;;;;;;4332169;33;20188;-82
2021/01/15 15:38:30;;;;;;;30.57;10.27;;;;;;;;;;4330207;33;20242;-84
2021/01/15 15:41:03;;;;;;;17.73;8.23;;;;;;;;;;4338842;33;20154;-86
2021/01/15 15:43:35;;;;;;;19.60;8.30;;;;;;;;;;4347047;33;20459;-85
2021/01/15 15:46:05;;;;;;;13.80;7.90;;;;;;;;;;4368265;32;20235;-84
2021/01/15 15:48:57;;;;;;;27.00;9.03;;;;;;;;;;4392444;32;20259;-84
2021/01/15 15:51:45;;;;;;;;;;;;;;;;;;;;;
2021/01/15 15:54:28;;;;;;;15.47;8.20;;;;;;;;;;4406924;32;20134;-84
2021/01/15 16:03:29;;;;;;;16.43;8.60;;;;;;;;;;4343848;33;20210;-82
2021/01/15 16:05:55;;;;;;;23.00;9.67;;;;;;;;;;4344106;33;20202;-75
2021/01/15 16:08:22;;;;;;;17.80;8.83;;;;;;;;;;4380030;32;20205;-80
2021/01/15 16:10:48;;;;;;;17.60;8.97;;;;;;;;;;4392194;32;20176;-79
2021/01/15 16:13:13;;;;;;;20.60;8.97;;;;;;;;;;4391943;32;20507;-79
2021/01/15 16:15:41;;;;;;;16.90;8.40;;;;;;;;;;4405547;32;20501;-80
2021/01/15 16:18:07;;;;;;;24.40;9.97;;;;;;;;;;4391723;32;20192;-79
2021/01/15 16:20:35;;;;;;;23.63;9.60;;;;;;;;;;4390823;32;20158;-79
2021/01/15 16:23:00;;;;;;;22.77;9.43;;;;;;;;;;4391315;32;20287;-77
2021/01/15 16:25:26;;;;;;;19.27;9.30;;;;;;;;;;4391730;32;20588;-79
2021/01/15 16:27:58;;;;;;;16.10;8.30;;;;;;;;;;4391717;32;20200;-79
2021/01/15 16:30:23;;;;;;;19.23;8.93;;;;;;;;;;4389201;32;20613;-79
2021/01/15 16:32:53;;;;;;;15.27;8.90;;;;;;;;;;4391641;32;20162;-78
2021/01/15 16:35:18;;;;;;;19.23;8.67;;;;;;;;;;4391757;32;20158;-78
2021/01/15 16:37:44;;;;;;;15.97;8.73;;;;;;;;;;4391961;32;20200;-78
2021/01/15 16:40:10;;;;;;;26.27;10.10;;;;;;;;;;4392378;32;20188;-78
2021/01/15 16:42:38;;;;;;;22.17;10.27;;;;;;;;;;4391675;32;20159;-79
2021/01/15 16:45:04;;;;;;;18.80;9.00;;;;;;;;;;4392022;32;20229;-78
2021/01/15 16:47:29;;;;;;;18.70;10.20;;;;;;;;;;4391403;32;20236;-80
2021/01/15 16:50:01;;;;;;;25.70;11.33;;;;;;;;;;4391239;32;20153;-78
2021/01/15 16:52:26;;;;;;;22.43;11.30;;;;;;;;;;4379640;32;20587;-79
2021/01/15 16:54:52;;;;;;;22.83;11.27;;;;;;;;;;4391564;32;20157;-80
2021/01/15 16:57:18;;;;;;;23.47;11.93;;;;;;;;;;4391241;32;20660;-79
2021/01/15 16:59:43;;;;;;;23.33;10.87;;;;;;;;;;4391301;32;20595;-78
2021/01/15 17:02:11;;;;;;;20.73;11.03;;;;;;;;;;4391770;32;20158;-78
2021/01/15 17:04:36;;;;;;;27.13;12.20;;;;;;;;;;4391264;32;20184;-78
2021/01/15 17:07:01;;;;;;;20.90;11.47;;;;;;;;;;4386882;32;20232;-78
2021/01/15 17:09:27;;;;;;;21.73;11.70;;;;;;;;;;4405490;32;20225;-79
2021/01/15 17:11:53;;;;;;;26.90;11.30;;;;;;;;;;4391077;32;20181;-79
2021/01/15 17:14:18;;;;;;;21.63;11.30;;;;;;;;;;4405561;32;20135;-78
2021/01/15 17:16:44;;;;;;;20.03;11.23;;;;;;;;;;4391442;32;20161;-77
2021/01/15 17:19:09;;;;;;;24.53;10.77;;;;;;;;;;4404876;32;20233;-78
2021/01/15 17:21:38;;;;;;;22.83;12.27;;;;;;;;;;4391036;32;20224;-79
2021/01/15 17:24:04;;;;;;;17.80;10.77;;;;;;;;;;4389074;32;20282;-78
2021/01/15 17:26:34;;;;;;;17.40;10.13;;;;;;;;;;4391020;32;20161;-77
2021/01/15 17:29:18;;;;;;;;;;;;;;;;;;;;;
2021/01/15 17:31:54;;;;;;;21.70;9.67;;;;;;;;;;4404480;32;20173;-77
2021/01/15 17:34:20;;;;;;;17.67;9.60;;;;;;;;;;4390670;32;20541;-77
2021/01/15 17:36:55;;;;;;;19.77;9.37;;;;;;;;;;4404757;32;20153;-77
2021/01/15 17:39:39;;;;;;;20.63;11.23;;;;;;;;;;4390015;32;20203;-79
2021/01/15 17:42:04;;;;;;;20.83;9.63;;;;;;;;;;4403707;32;20214;-79
2021/01/15 17:44:41;;;;;;;20.57;9.73;;;;;;;;;;4390482;32;20587;-79
2021/01/15 17:47:12;;;;;;;18.70;9.97;;;;;;;;;;4405346;32;20121;-78
2021/01/15 17:49:40;;;;;;;19.07;10.40;;;;;;;;;;4390513;32;20150;-78
2021/01/15 17:52:09;;;;;;;22.70;11.20;;;;;;;;;;4390554;32;20154;-79
2021/01/15 17:54:41;;;;;;;21.73;11.50;;;;;;;;;;4418627;32;20168;-78
2021/01/15 17:57:09;;;;;;;17.90;10.43;;;;;;;;;;4405535;32;20173;-77
2021/01/15 18:00:07;;;;;;;16.83;9.47;;;;;;;;;;4406057;32;20191;-77
2021/01/15 18:06:04;;;;;;;18.87;10.20;;;;;;;;;;4417757;32;20492;-78
2021/01/15 18:08:43;;;;;;;19.53;10.53;;;;;;;;;;4419560;32;20200;-78
2021/01/15 18:11:24;;;;;;;18.87;10.93;;;;;;;;;;4420159;32;20122;-78
2021/01/15 18:13:52;;;;;;;19.63;11.30;;;;;;;;;;4420442;32;20122;-78
2021/01/15 18:16:29;;;;;;;19.63;10.93;;;;;;;;;;4406252;32;20165;-77
2021/01/15 18:18:57;;;;;;;16.80;10.03;;;;;;;;;;4405222;32;20172;-78
2021/01/15 18:21:24;;;;;;;17.90;9.70;;;;;;;;;;4404296;32;20548;-78
2021/01/15 18:23:53;;;;;;;16.97;9.83;;;;;;;;;;4401456;32;20231;-78
2021/01/15 18:26:18;;;;;;;16.07;9.87;;;;;;;;;;4403004;32;20229;-78
2021/01/15 18:28:46;;;;;;;17.53;9.87;;;;;;;;;;4395629;32;20223;-79
2021/01/15 18:31:11;;;;;;;15.80;9.53;;;;;;;;;;4389722;32;20236;-78
2021/01/15 18:33:39;;;;;;;16.97;9.90;;;;;;;;;;4390082;32;20155;-79
2021/01/15 18:36:04;;;;;;;16.90;10.20;;;;;;;;;;4389677;32;20259;-79
2021/01/15 18:38:32;;;;;;;18.23;9.77;;;;;;;;;;4389373;32;20165;-79
2021/01/15 18:41:03;;;;;;;19.63;10.50;;;;;;;;;;4389550;32;20607;-79
2021/01/15 18:43:31;;;;;;;17.20;10.37;;;;;;;;;;4389973;32;20219;-79
2021/01/15 18:46:00;;;;;;;15.50;9.07;;;;;;;;;;4392483;32;20151;-80
2021/01/15 18:48:25;;;;;;;18.17;10.10;;;;;;;;;;4391868;32;20587;-79
2021/01/15 18:50:50;;;;;;;15.40;9.57;;;;;;;;;;4392099;32;20216;-79
2021/01/15 18:53:15;;;;;;;19.63;10.90;;;;;;;;;;4405836;32;20135;-79
2021/01/15 18:55:41;;;;;;;18.53;9.10;;;;;;;;;;4391724;32;20178;-78
2021/01/15 18:58:09;;;;;;;13.87;8.70;;;;;;;;;;4405747;32;20180;-80
2021/01/15 19:00:40;;;;;;;14.77;8.73;;;;;;;;;;4392048;32;20146;-79
2021/01/15 19:03:06;;;;;;;17.40;9.80;;;;;;;;;;4407139;32;20127;-79
2021/01/15 19:05:33;;;;;;;17.77;9.77;;;;;;;;;;4392404;32;20284;-80
2021/01/15 19:08:16;;;;;;;15.10;9.00;;;;;;;;;;4405834;32;20122;-79
2021/01/15 19:10:41;;;;;;;14.60;9.00;;;;;;;;;;4392158;32;20207;-79
2021/01/15 19:13:06;;;;;;;17.97;9.73;;;;;;;;;;4391717;32;20174;-80
2021/01/15 19:15:32;;;;;;;17.53;9.53;;;;;;;;;;4392497;32;20150;-80
2021/01/15 19:18:08;;;;;;;16.70;8.73;;;;;;;;;;4391650;32;20200;-80
2021/01/15 19:20:34;;;;;;;14.83;9.70;;;;;;;;;;4392116;32;20700;-81
2021/01/15 19:23:02;;;;;;;16.83;9.97;;;;;;;;;;4391965;32;20343;-80
2021/01/15 19:25:27;;;;;;;18.07;10.30;;;;;;;;;;4406820;32;20126;-79
2021/01/15 19:27:53;;;;;;;17.00;9.47;;;;;;;;;;4392480;32;20157;-79
2021/01/15 19:30:18;;;;;;;14.43;9.13;;;;;;;;;;4392784;32;20219;-79
2021/01/15 19:32:44;;;;;;;16.87;9.00;;;;;;;;;;4406916;32;20161;-79
2021/01/15 19:35:10;;;;;;;17.60;9.27;;;;;;;;;;4392501;32;20222;-79
2021/01/15 19:37:41;;;;;;;16.97;9.73;;;;;;;;;;4392031;32;20590;-80
2021/01/15 19:40:10;;;;;;;15.83;9.23;;;;;;;;;;4392764;32;20719;-79
2021/01/15 19:42:35;;;;;;;15.40;9.23;;;;;;;;;;4392276;32;20180;-78
2021/01/15 19:45:04;;;;;;;17.73;10.00;;;;;;;;;;4392366;32;20260;-78
2021/01/15 19:47:33;;;;;;;21.53;11.03;;;;;;;;;;4392326;32;20272;-79
2021/01/15 19:49:58;;;;;;;17.13;9.60;;;;;;;;;;4406033;32;20561;-80
2021/01/15 19:52:27;;;;;;;14.90;8.73;;;;;;;;;;4392085;32;20158;-79
2021/01/15 19:54:52;;;;;;;17.50;9.87;;;;;;;;;;4392699;32;20220;-79
2021/01/15 19:57:20;;;;;;;14.73;8.60;;;;;;;;;;4392040;32;20158;-79
2021/01/15 19:59:45;;;;;;;17.07;10.40;;;;;;;;;;4392280;32;20500;-79
2021/01/15 20:02:13;;;;;;;16.17;9.53;;;;;;;;;;4392100;32;20255;-78
2021/01/15 20:04:39;;;;;;;15.57;9.50;;;;;;;;;;4391871;32;20605;-78
2021/01/15 20:07:07;;;;;;;17.87;10.30;;;;;;;;;;4391699;32;20154;-79
2021/01/15 20:09:42;;;;;;;17.47;10.50;;;;;;;;;;4391859;32;20233;-79
2021/01/15 20:12:15;;;;;;;17.57;10.40;;;;;;;;;;4391767;32;20683;-80
2021/01/15 20:14:43;;;;;;;20.17;10.80;;;;;;;;;;4405351;32;20638;-80
2021/01/15 20:17:09;;;;;;;17.07;9.83;;;;;;;;;;4384189;32;20212;-80
2021/01/15 20:19:34;;;;;;;16.67;9.47;;;;;;;;;;4390604;32;20594;-79
2021/01/15 20:22:00;;;;;;;15.93;9.67;;;;;;;;;;4376851;32;20476;-79
2021/01/15 20:24:25;;;;;;;22.67;10.47;;;;;;;;;;4376845;32;20556;-80
2021/01/15 20:26:56;;;;;;;19.00;9.47;;;;;;;;;;4377018;32;20292;-79
2021/01/15 20:29:24;;;;;;;14.57;8.87;;;;;;;;;;4376849;32;20154;-79
2021/01/15 20:31:49;;;;;;;14.63;8.63;;;;;;;;;;4376484;32;20170;-78
2021/01/15 20:34:15;;;;;;;15.83;9.57;;;;;;;;;;4390126;32;20561;-80
2021/01/15 20:37:07;;;;;;;16.13;10.07;;;;;;;;;;4376507;32;20631;-80
2021/01/15 20:39:32;;;;;;;17.70;9.43;;;;;;;;;;4369839;32;20208;-79
2021/01/15 20:45:28;;;;;;;19.33;11.07;;;;;;;;;;4359904;32;20189;-80
2021/01/15 20:47:53;;;;;;;18.70;10.90;;;;;;;;;;4376342;32;20245;-79
2021/01/15 20:50:24;;;;;;;17.60;9.87;;;;;;;;;;4376658;32;20159;-79
2021/01/15 20:53:03;;;;;;;15.40;9.77;;;;;;;;;;4390473;32;20130;-80
2021/01/15 20:55:29;;;;;;;15.30;10.10;;;;;;;;;;4376576;32;20154;-79
2021/01/15 20:58:03;;;;;;;17.03;9.97;;;;;;;;;;4376083;32;20200;-79
2021/01/15 21:00:35;;;;;;;17.90;9.57;;;;;;;;;;4376208;32;20550;-79
2021/01/15 21:03:05;;;;;;;18.13;9.97;;;;;;;;;;4376665;32;20185;-79
2021/01/15 21:05:31;;;;;;;16.87;9.60;;;;;;;;;;4390204;32;20131;-80
2021/01/15 21:08:06;;;;;;;17.53;10.60;;;;;;;;;;4375954;32;20584;-79
2021/01/15 21:10:35;;;;;;;17.43;10.23;;;;;;;;;;4376141;32;20158;-78
2021/01/15 21:13:03;;;;;;;18.07;10.87;;;;;;;;;;4389750;32;20162;-78
2021/01/15 21:15:31;;;;;;;19.37;11.23;;;;;;;;;;4376536;32;20162;-78
2021/01/15 21:17:56;;;;;;;18.90;10.80;;;;;;;;;;4376330;32;20162;-78
2021/01/15 21:20:25;;;;;;;16.90;9.83;;;;;;;;;;4376467;32;20509;-78
2021/01/15 21:22:53;;;;;;;17.27;10.40;;;;;;;;;;4376260;32;20170;-78
2021/01/15 21:25:27;;;;;;;17.43;9.97;;;;;;;;;;4375768;32;20173;-78
2021/01/15 21:27:53;;;;;;;16.93;10.03;;;;;;;;;;4376280;32;20237;-78
2021/01/15 21:30:19;;;;;;;17.90;10.23;;;;;;;;;;4390102;32;20134;-80
2021/01/15 21:32:46;;;;;;;19.93;11.50;;;;;;;;;;4389942;32;20482;-80
2021/01/15 21:35:24;;;;;;;;;;;;;;;;;;;;;
2021/01/15 21:37:51;;;;;;;16.87;9.13;;;;;;;;;;4390338;32;20138;-79
2021/01/15 21:40:19;;;;;;;16.13;9.27;;;;;;;;;;4376184;32;20184;-79
2021/01/15 21:42:47;;;;;;;17.53;9.20;;;;;;;;;;4389681;32;20127;-79
2021/01/15 21:45:17;;;;;;;20.77;11.50;;;;;;;;;;4376137;32;20199;-79
2021/01/15 21:47:45;;;;;;;23.00;11.37;;;;;;;;;;4389575;32;20184;-79
2021/01/15 21:50:14;;;;;;;22.10;10.93;;;;;;;;;;4375911;32;20189;-78
2021/01/15 21:52:44;;;;;;;22.23;11.97;;;;;;;;;;4375525;32;20181;-78
2021/01/15 21:55:12;;;;;;;25.03;13.20;;;;;;;;;;4394481;32;20134;-78
2021/01/15 21:57:45;;;;;;;23.53;13.10;;;;;;;;;;4390861;32;20154;-79
2021/01/15 22:00:10;;;;;;;27.77;14.73;;;;;;;;;;4390724;32;20602;-78
2021/01/15 22:02:45;;;;;;;27.53;15.43;;;;;;;;;;4391279;32;20146;-78
2021/01/15 22:05:11;;;;;;;27.90;13.93;;;;;;;;;;4390892;32;20267;-78
2021/01/15 22:07:36;;;;;;;26.27;14.57;;;;;;;;;;4390752;32;20153;-79
2021/01/15 22:10:06;;;;;;;31.63;15.40;;;;;;;;;;4404773;32;20256;-79
2021/01/15 22:12:35;;;;;;;26.90;15.13;;;;;;;;;;4404443;32;20636;-78
2021/01/15 22:18:43;;;;;;;26.90;14.57;;;;;;;;;;4312771;33;20189;-79
2021/01/15 22:21:20;;;;;;;31.03;15.53;;;;;;;;;;4315338;33;20226;-79
2021/01/15 22:23:46;;;;;;;31.03;15.47;;;;;;;;;;4315725;33;20303;-79
2021/01/15 22:26:27;;;;;;;26.07;14.50;;;;;;;;;;4320904;33;20199;-79
2021/01/15 22:29:02;;;;;;;26.97;13.77;;;;;;;;;;4391942;32;20174;-80
2021/01/15 22:31:33;;;;;;;26.63;13.83;;;;;;;;;;4406068;32;20130;-79
2021/01/15 22:34:04;;;;;;;27.83;13.93;;;;;;;;;;4393271;32;20514;-79
2021/01/15 22:36:29;;;;;;;25.90;13.83;;;;;;;;;;4393688;32;20161;-80
2021/01/15 22:38:57;;;;;;;23.23;13.10;;;;;;;;;;4393158;32;20620;-80
2021/01/15 22:41:26;;;;;;;25.33;13.67;;;;;;;;;;4393366;32;20169;-79
2021/01/15 22:43:51;;;;;;;28.10;14.30;;;;;;;;;;4392738;32;20190;-80
2021/01/15 22:46:17;;;;;;;27.90;13.70;;;;;;;;;;4406772;32;20126;-79
2021/01/15 22:48:43;;;;;;;23.63;13.10;;;;;;;;;;4392910;32;20207;-79
2021/01/15 22:51:08;;;;;;;24.03;13.70;;;;;;;;;;4393009;32;20170;-79
2021/01/15 22:53:35;;;;;;;24.37;14.50;;;;;;;;;;4393626;32;20231;-77
2021/01/15 22:56:01;;;;;;;27.67;14.53;;;;;;;;;;4393134;32;20229;-78
2021/01/15 22:58:29;;;;;;;24.50;13.33;;;;;;;;;;4406859;32;20134;-78
2021/01/15 23:01:14;;;;;;;;;;;;;;;;;;;;;
2021/01/15 23:03:50;;;;;;;29.20;14.57;;;;;;;;;;4406353;32;20138;-78
2021/01/15 23:06:18;;;;;;;24.83;13.13;;;;;;;;;;4393583;32;20146;-78
2021/01/15 23:08:47;;;;;;;29.37;14.67;;;;;;;;;;4392729;32;20157;-78
2021/01/15 23:11:17;;;;;;;23.83;13.70;;;;;;;;;;4392782;32;20153;-78
2021/01/15 23:13:56;;;;;;;25.50;13.70;;;;;;;;;;4392463;32;20158;-78